• Join FlightAware (Why Join?)
  • Login
  • US Flag 
03:59PM EDT


 

Airport Tracker/Info


-or-


 

Live Flight TrackerFlight Track Log ✈ SWA3228 ✈ 02-May-2013 ✈ KMDW - KCLE

Flight Track Log - Related Links

Times and Time Zones

All times are in EDT time to prevent confusion due to time zone crossing. See the SWA3228 flight status page for this flight to view local times or setup timezone preferences in your user account.

Time Position Orientation Groundspeed Altitude Reporting Facility
EDT Latitude Longitude Course Direction KTS MPH feet Rate Location/Type
12:44PM 41.8000 -87.6333 90° East 240 276 4,600  Level Chicago TRACON
12:45PM 41.8033 -87.5900 84° East 234 269 5,000 540 Climbing Chicago Center
12:46PM 41.8069 -87.4897 87° East 263 303 5,500 1,680 Climbing Chicago Center
12:47PM 41.7922 -87.3706 99° East 272 313 8,500 3,720 Climbing Chicago Center
12:48PM 41.7819 -87.2686 98° East 277 319 13,200 3,540 Climbing Chicago Center
12:49PM 41.7500 -86.9898 90° East  Level FlightAware Approximate
12:49PM 41.7714 -87.1567 97° East 301 346 15,900  Level Chicago Center
12:50PM 41.7614 -87.0264 96° East 348 400 19,400 2,940 Climbing Chicago Center
12:52PM 41.7650 -86.7397 89° East 394 453 25,100 2,940 Climbing Chicago Center
12:53PM 41.7667 -86.5639 89° East 414 476 28,600 3,240 Climbing Chicago Center
12:54PM 41.7675 -86.4097 90° East 416 479 31,800 1,020 Climbing Chicago Center
12:56PM 41.7723 -86.2445 84° East  Level FlightAware Approximate
12:57PM 41.8097 -85.9381 82° East 430 495 33,000  Level Chicago Center
12:58PM 41.8300 -85.7481 82° East 429 494 33,000  Level Chicago Center
12:59PM 41.8469 -85.5889 82° East 429 494 33,000  Level Chicago Center
01:00PM 41.8647 -85.4294 81° East 428 493 33,000  Level Chicago Center
01:01PM 41.8794 -85.3053 81° East 444 511 33,000  Level Cleveland Center
01:02PM 41.8939 -85.1503 83° East 432 497 33,000  Level Cleveland Center
01:03PM 41.8548 -85.4050 82° East  Level FlightAware Approximate
01:03PM 41.9078 -85.0117 82° East 425 489 33,000  Level Cleveland Center
01:04PM 41.9242 -84.8536 82° East 419 482 33,000  Level Cleveland Center
01:05PM 41.9383 -84.6981 83° East 419 482 33,000  Level Cleveland Center
01:06PM 41.9522 -84.5397 83° East 424 488 33,000 -300 Level Cleveland Center
01:07PM 41.9658 -84.3842 83° East 424 488 32,500 -840 Descending Cleveland Center
01:08PM 41.9797 -84.2119 84° East 424 488 31,400 -1,020 Descending Cleveland Center
01:09PM 41.9950 -84.0561 82° East 424 488 30,500 -960 Descending Cleveland Center
01:10PM 42.0081 -83.8975 84° East 424 488 29,500 -960 Descending Cleveland Center
01:11PM 42.0206 -83.7500 83° East 430 495 28,600 -960 Descending Cleveland Center
01:12PM 42.0331 -83.5886 84° East 430 495 27,600 -1,080 Descending Cleveland Center
01:13PM 42.0417 -83.4156 86° East 430 495 26,500 -1,080 Descending Cleveland Center
01:14PM 42.0267 -83.2639 98° East 418 481 25,500 -1,080 Descending Cleveland Center
01:15PM 42.0167 -83.1544 97° East 407 468 24,700 -900 Descending Cleveland Center
01:15PM 42.0131 -83.1292 101° East 411 473 24,600 -1,200 Descending Cleveland Center
01:16PM 41.9997 -82.9750 97° East 411 473 23,200 -1,860 Descending Cleveland Center
01:17PM 41.9894 -82.8656 97° East 398 458 21,300 -2,340 Descending Cleveland Center
01:18PM 41.9717 -82.6975 98° East 385 443 18,600 -2,460 Descending Cleveland Center
01:19PM 41.9575 -82.5628 98° East 361 415 16,100 -2,580 Descending Cleveland Center
01:20PM 41.9239 -82.4503 112° Southeast 348 400 13,900 -2,400 Descending Cleveland Center
01:21PM 41.8861 -82.3319 113° Southeast 336 387 11,600 -1,920 Descending Cleveland Center
01:22PM 41.8522 -82.2222 112° Southeast 306 352 10,000 -960 Descending Cleveland Center
01:23PM 41.8097 -82.1461 127° Southeast 250 288 9,700 -1,020 Descending Cleveland Center
01:24PM 41.7500 -82.0889 144° Southeast 261 300 8,000 -1,320 Descending Cleveland Center
01:25PM 41.6819 -82.0289 147° Southeast 258 297 7,000 -480 Descending Cleveland Center
01:26PM 41.6283 -81.9750 143° Southeast 256 295 7,000  Level Cleveland Center
01:27PM 41.5894 -81.9103 129° Southeast 244 281 7,000 -360 Level Cleveland Center
01:28PM 41.5547 -81.8539 129° Southeast 193 222 6,400 -1,440 Descending Cleveland Center
01:29PM 41.5097 -81.7867 132° Southeast 198 228 3,800 -1,620 Descending Cleveland Center
01:30PM 41.4661 -81.7608 156° South 146 168 2,400 -1,140 Descending Cleveland Center
01:31PM 41.4514 -81.7828 228° Southwest 141 162 1,900 -780 Descending Cleveland Center
01:32PM 41.4258 -81.8239 230° Southwest 131 151 1,200 -660 Descending Cleveland Center
01:34PM 41.4000 -81.8500 153° Southeast  Level FlightAware Approximate
01:41PM 41.4094 -81.8547 153° Southeast  Level Estimated